sensor_id;sensor_type;location;lat;lon;timestamp;pressure;altitude;pressure_sealevel;temperature;humidity
37132;BME280;23035;50.032;21.978;2022-08-19T00:01:42;67562.44;;;22.67;100.00
37132;BME280;23035;50.032;21.978;2022-08-19T00:06:55;67503.41;;;22.09;100.00
37132;BME280;23035;50.032;21.978;2022-08-19T00:11:59;67512.56;;;22.15;100.00
37132;BME280;23035;50.032;21.978;2022-08-19T00:17:05;67449.78;;;21.56;100.00
37132;BME280;23035;50.032;21.978;2022-08-19T00:22:09;67463.84;;;21.69;100.00
37132;BME280;23035;50.032;21.978;2022-08-19T00:27:13;67417.41;;;21.28;100.00
37132;BME280;23035;50.032;21.978;2022-08-19T00:32:30;67331.47;;;20.47;100.00
37132;BME280;23035;50.032;21.978;2022-08-19T00:37:35;67294.66;;;20.10;100.00
37132;BME280;23035;50.032;21.978;2022-08-19T00:42:39;67216.41;;;19.38;100.00
37132;BME280;23035;50.032;21.978;2022-08-19T00:47:44;67226.56;;;19.45;100.00
37132;BME280;23035;50.032;21.978;2022-08-19T00:52:48;67195.34;;;19.18;100.00
37132;BME280;23035;50.032;21.978;2022-08-19T00:57:56;67255.22;;;19.72;100.00
37132;BME280;23035;50.032;21.978;2022-08-19T01:03:02;67314.09;;;20.28;100.00
37132;BME280;23035;50.032;21.978;2022-08-19T01:08:07;67373.00;;;20.83;100.00
37132;BME280;23035;50.032;21.978;2022-08-19T01:13:14;67397.94;;;21.09;100.00
37132;BME280;23035;50.032;21.978;2022-08-19T01:18:20;67416.19;;;21.22;100.00
37132;BME280;23035;50.032;21.978;2022-08-19T01:23:26;67386.03;;;20.98;100.00
37132;BME280;23035;50.032;21.978;2022-08-19T01:28:46;67386.44;;;20.94;100.00
37132;BME280;23035;50.032;21.978;2022-08-19T01:33:55;67395.72;;;21.05;100.00
37132;BME280;23035;50.032;21.978;2022-08-19T01:39:03;67393.53;;;21.03;100.00
37132;BME280;23035;50.032;21.978;2022-08-19T01:44:08;67357.28;;;20.66;100.00
37132;BME280;23035;50.032;21.978;2022-08-19T01:49:22;67341.13;;;20.53;100.00
37132;BME280;23035;50.032;21.978;2022-08-19T01:54:28;67342.75;;;20.55;100.00
37132;BME280;23035;50.032;21.978;2022-08-19T01:59:32;67374.69;;;20.87;100.00
37132;BME280;23035;50.032;21.978;2022-08-19T02:04:39;67399.50;;;21.08;100.00
37132;BME280;23035;50.032;21.978;2022-08-19T02:09:44;67340.66;;;20.55;100.00
37132;BME280;23035;50.032;21.978;2022-08-19T02:14:47;67376.31;;;20.89;100.00
37132;BME280;23035;50.032;21.978;2022-08-19T02:19:51;67306.94;;;20.16;100.00
37132;BME280;23035;50.032;21.978;2022-08-19T02:24:56;67250.97;;;19.71;100.00
37132;BME280;23035;50.032;21.978;2022-08-19T02:30:00;67161.88;;;18.87;100.00
37132;BME280;23035;50.032;21.978;2022-08-19T02:35:05;67171.47;;;18.91;100.00
37132;BME280;23035;50.032;21.978;2022-08-19T02:40:15;67144.13;;;18.73;100.00
37132;BME280;23035;50.032;21.978;2022-08-19T02:45:20;67133.19;;;18.57;100.00
37132;BME280;23035;50.032;21.978;2022-08-19T02:50:25;67179.63;;;19.01;100.00
37132;BME280;23035;50.032;21.978;2022-08-19T02:55:30;67264.47;;;19.84;100.00
37132;BME280;23035;50.032;21.978;2022-08-19T03:00:50;67299.59;;;20.17;100.00
37132;BME280;23035;50.032;21.978;2022-08-19T03:06:05;67327.69;;;20.43;100.00
37132;BME280;23035;50.032;21.978;2022-08-19T03:11:15;67280.19;;;20.01;100.00
37132;BME280;23035;50.032;21.978;2022-08-19T03:16:23;67316.31;;;20.32;100.00
37132;BME280;23035;50.032;21.978;2022-08-19T03:21:30;67360.09;;;20.74;100.00
37132;BME280;23035;50.032;21.978;2022-08-19T03:26:38;67240.72;;;19.61;100.00
37132;BME280;23035;50.032;21.978;2022-08-19T03:31:43;67275.25;;;19.94;100.00
37132;BME280;23035;50.032;21.978;2022-08-19T03:36:55;67115.88;;;18.39;100.00
37132;BME280;23035;50.032;21.978;2022-08-19T03:42:01;67099.88;;;18.31;100.00
37132;BME280;23035;50.032;21.978;2022-08-19T03:47:24;67147.78;;;18.71;100.00
37132;BME280;23035;50.032;21.978;2022-08-19T03:52:28;67122.47;;;18.50;100.00
37132;BME280;23035;50.032;21.978;2022-08-19T03:57:34;67177.53;;;19.02;100.00
37132;BME280;23035;50.032;21.978;2022-08-19T04:02:37;67142.47;;;18.69;100.00
37132;BME280;23035;50.032;21.978;2022-08-19T04:07:41;67297.34;;;20.12;100.00
37132;BME280;23035;50.032;21.978;2022-08-19T04:12:46;67371.53;;;20.87;100.00
37132;BME280;23035;50.032;21.978;2022-08-19T04:17:50;67326.53;;;20.40;100.00
37132;BME280;23035;50.032;21.978;2022-08-19T04:22:54;67400.63;;;21.12;100.00
37132;BME280;23035;50.032;21.978;2022-08-19T04:27:59;67459.59;;;21.67;100.00
37132;BME280;23035;50.032;21.978;2022-08-19T04:33:03;67576.34;;;22.72;100.00
37132;BME280;23035;50.032;21.978;2022-08-19T04:38:08;67542.84;;;22.43;100.00
37132;BME280;23035;50.032;21.978;2022-08-19T04:43:13;67530.94;;;22.32;100.00
37132;BME280;23035;50.032;21.978;2022-08-19T04:48:18;67590.66;;;22.96;100.00
37132;BME280;23035;50.032;21.978;2022-08-19T04:53:31;67681.38;;;23.71;100.00
37132;BME280;23035;50.032;21.978;2022-08-19T04:58:42;67658.69;;;23.52;100.00
37132;BME280;23035;50.032;21.978;2022-08-19T05:03:46;67731.81;;;24.21;100.00
37132;BME280;23035;50.032;21.978;2022-08-19T05:08:51;67702.59;;;23.96;100.00
37132;BME280;23035;50.032;21.978;2022-08-19T05:13:56;67699.94;;;23.96;100.00
37132;BME280;23035;50.032;21.978;2022-08-19T05:19:00;67677.81;;;23.78;100.00
37132;BME280;23035;50.032;21.978;2022-08-19T05:24:22;67677.09;;;23.69;100.00
37132;BME280;23035;50.032;21.978;2022-08-19T05:29:29;67593.25;;;22.93;100.00
37132;BME280;23035;50.032;21.978;2022-08-19T05:34:38;67638.16;;;23.35;100.00
37132;BME280;23035;50.032;21.978;2022-08-19T05:39:42;67741.00;;;24.29;100.00
37132;BME280;23035;50.032;21.978;2022-08-19T05:44:53;67788.75;;;24.77;100.00
37132;BME280;23035;50.032;21.978;2022-08-19T05:49:58;67724.25;;;24.16;100.00
37132;BME280;23035;50.032;21.978;2022-08-19T05:55:07;67768.28;;;24.63;100.00
37132;BME280;23035;50.032;21.978;2022-08-19T06:00:13;67851.03;;;25.33;100.00
37132;BME280;23035;50.032;21.978;2022-08-19T06:05:17;67957.41;;;26.35;100.00
37132;BME280;23035;50.032;21.978;2022-08-19T06:10:22;67986.66;;;26.60;100.00
37132;BME280;23035;50.032;21.978;2022-08-19T06:15:28;68063.25;;;27.37;100.00
37132;BME280;23035;50.032;21.978;2022-08-19T06:20:32;68029.09;;;27.05;100.00
37132;BME280;23035;50.032;21.978;2022-08-19T06:25:56;67942.19;;;26.21;100.00
37132;BME280;23035;50.032;21.978;2022-08-19T06:31:06;68096.94;;;27.68;100.00
37132;BME280;23035;50.032;21.978;2022-08-19T06:36:18;68070.38;;;27.46;100.00
37132;BME280;23035;50.032;21.978;2022-08-19T06:41:26;68103.94;;;27.72;100.00
37132;BME280;23035;50.032;21.978;2022-08-19T06:46:32;68129.97;;;27.94;93.32
37132;BME280;23035;50.032;21.978;2022-08-19T06:51:37;68159.31;;;28.24;88.53
37132;BME280;23035;50.032;21.978;2022-08-19T06:56:46;68148.47;;;28.14;83.68
37132;BME280;23035;50.032;21.978;2022-08-19T07:01:53;68120.81;;;27.91;84.75
37132;BME280;23035;50.032;21.978;2022-08-19T07:07:03;68241.38;;;29.01;78.22
37132;BME280;23035;50.032;21.978;2022-08-19T07:12:22;68216.34;;;28.78;77.66
37132;BME280;23035;50.032;21.978;2022-08-19T07:17:29;68239.19;;;28.99;74.77
37132;BME280;23035;50.032;21.978;2022-08-19T07:22:36;68235.94;;;28.96;74.72
37132;BME280;23035;50.032;21.978;2022-08-19T07:27:40;68230.56;;;28.94;73.98
37132;BME280;23035;50.032;21.978;2022-08-19T07:32:51;68225.59;;;28.86;74.94
37132;BME280;23035;50.032;21.978;2022-08-19T07:37:55;68251.69;;;29.11;73.41
37132;BME280;23035;50.032;21.978;2022-08-19T07:42:59;68265.28;;;29.24;72.24
37132;BME280;23035;50.032;21.978;2022-08-19T07:48:04;68271.84;;;29.32;71.07
37132;BME280;23035;50.032;21.978;2022-08-19T07:53:08;68324.03;;;29.81;67.49
37132;BME280;23035;50.032;21.978;2022-08-19T07:58:14;68350.59;;;30.04;66.54
37132;BME280;23035;50.032;21.978;2022-08-19T08:03:21;68434.41;;;30.84;65.04
37132;BME280;23035;50.032;21.978;2022-08-19T08:08:45;68395.81;;;30.48;59.57
37132;BME280;23035;50.032;21.978;2022-08-19T08:14:08;68412.03;;;30.59;60.47
37132;BME280;23035;50.032;21.978;2022-08-19T08:19:32;68469.72;;;31.15;59.40
37132;BME280;23035;50.032;21.978;2022-08-19T08:24:36;68360.44;;;30.15;59.61
37132;BME280;23035;50.032;21.978;2022-08-19T08:29:41;68295.19;;;29.52;62.16
37132;BME280;23035;50.032;21.978;2022-08-19T08:34:48;68418.66;;;30.70;61.03
37132;BME280;23035;50.032;21.978;2022-08-19T08:39:54;68469.78;;;31.18;59.92
37132;BME280;23035;50.032;21.978;2022-08-19T08:45:00;68478.00;;;31.28;60.68
37132;BME280;23035;50.032;21.978;2022-08-19T08:50:13;68469.78;;;31.18;61.13
37132;BME280;23035;50.032;21.978;2022-08-19T08:55:20;68477.94;;;31.25;61.61
37132;BME280;23035;50.032;21.978;2022-08-19T09:00:27;68559.56;;;32.02;58.82
37132;BME280;23035;50.032;21.978;2022-08-19T09:05:41;68536.69;;;31.78;56.41
37132;BME280;23035;50.032;21.978;2022-08-19T09:10:53;68512.22;;;31.57;56.63
37132;BME280;23035;50.032;21.978;2022-08-19T09:16:02;68475.22;;;31.23;54.55
37132;BME280;23035;50.032;21.978;2022-08-19T09:21:08;68498.56;;;31.42;56.84
37132;BME280;23035;50.032;21.978;2022-08-19T09:26:14;68489.97;;;31.42;57.06
37132;BME280;23035;50.032;21.978;2022-08-19T09:31:20;68489.34;;;31.36;56.71
37132;BME280;23035;50.032;21.978;2022-08-19T09:36:27;68516.59;;;31.64;55.57
37132;BME280;23035;50.032;21.978;2022-08-19T09:41:37;68501.34;;;31.47;56.99
37132;BME280;23035;50.032;21.978;2022-08-19T09:46:49;68525.81;;;31.70;55.99
37132;BME280;23035;50.032;21.978;2022-08-19T09:51:54;68561.19;;;32.03;53.69
37132;BME280;23035;50.032;21.978;2022-08-19T09:56:59;68594.47;;;32.37;52.35
37132;BME280;23035;50.032;21.978;2022-08-19T10:02:09;68572.63;;;32.14;51.82
37132;BME280;23035;50.032;21.978;2022-08-19T10:07:15;68595.47;;;32.33;51.80
37132;BME280;23035;50.032;21.978;2022-08-19T10:12:19;68579.69;;;32.20;50.72
37132;BME280;23035;50.032;21.978;2022-08-19T10:17:23;68646.13;;;32.82;50.42
37132;BME280;23035;50.032;21.978;2022-08-19T10:22:36;68610.19;;;32.49;51.74
37132;BME280;23035;50.032;21.978;2022-08-19T10:27:39;68596.63;;;32.39;51.37
37132;BME280;23035;50.032;21.978;2022-08-19T10:32:49;68598.22;;;32.38;50.80
37132;BME280;23035;50.032;21.978;2022-08-19T10:37:56;68613.53;;;32.57;50.04
37132;BME280;23035;50.032;21.978;2022-08-19T10:43:03;68696.81;;;33.32;47.98
37132;BME280;23035;50.032;21.978;2022-08-19T10:48:07;68720.16;;;33.47;46.91
37132;BME280;23035;50.032;21.978;2022-08-19T10:53:22;68672.31;;;33.09;49.78
37132;BME280;23035;50.032;21.978;2022-08-19T10:58:27;68693.50;;;33.24;48.89
37132;BME280;23035;50.032;21.978;2022-08-19T11:03:31;68698.41;;;33.31;47.92
37132;BME280;23035;50.032;21.978;2022-08-19T11:08:38;68775.81;;;34.04;46.32
37132;BME280;23035;50.032;21.978;2022-08-19T11:13:43;68812.28;;;34.35;46.89
37132;BME280;23035;50.032;21.978;2022-08-19T11:18:52;68728.38;;;33.57;47.77
37132;BME280;23035;50.032;21.978;2022-08-19T11:24:00;68661.41;;;32.97;49.14
37132;BME280;23035;50.032;21.978;2022-08-19T11:29:05;68881.03;;;35.04;44.61
37132;BME280;23035;50.032;21.978;2022-08-19T11:34:16;68841.25;;;34.70;41.77
37132;BME280;23035;50.032;21.978;2022-08-19T11:39:22;68961.22;;;35.82;41.28
37132;BME280;23035;50.032;21.978;2022-08-19T11:44:26;69178.41;;;37.79;35.25
37132;BME280;23035;50.032;21.978;2022-08-19T11:49:30;69232.47;;;38.32;34.19
37132;BME280;23035;50.032;21.978;2022-08-19T11:54:35;69172.41;;;37.76;35.51
37132;BME280;23035;50.032;21.978;2022-08-19T11:59:38;69300.75;;;38.96;33.04
37132;BME280;23035;50.032;21.978;2022-08-19T12:04:43;69209.47;;;38.03;34.05
37132;BME280;23035;50.032;21.978;2022-08-19T12:09:48;69185.50;;;37.88;33.53
37132;BME280;23035;50.032;21.978;2022-08-19T12:14:52;69145.09;;;37.48;33.24
37132;BME280;23035;50.032;21.978;2022-08-19T12:20:00;69142.91;;;37.49;32.88
37132;BME280;23035;50.032;21.978;2022-08-19T12:25:07;69203.50;;;38.03;32.51
37132;BME280;23035;50.032;21.978;2022-08-19T12:30:12;69288.75;;;38.85;31.64
37132;BME280;23035;50.032;21.978;2022-08-19T12:35:17;69346.09;;;39.36;31.24
37132;BME280;23035;50.032;21.978;2022-08-19T12:40:24;69318.81;;;39.15;32.04
37132;BME280;23035;50.032;21.978;2022-08-19T12:45:28;69193.16;;;37.96;32.95
37132;BME280;23035;50.032;21.978;2022-08-19T12:50:32;69331.91;;;39.25;31.99
37132;BME280;23035;50.032;21.978;2022-08-19T12:55:37;69189.31;;;37.89;33.39
37132;BME280;23035;50.032;21.978;2022-08-19T13:00:41;69204.03;;;38.03;33.75
37132;BME280;23035;50.032;21.978;2022-08-19T13:05:46;69138.00;;;37.42;34.15
37132;BME280;23035;50.032;21.978;2022-08-19T13:10:51;69072.47;;;36.81;35.47
37132;BME280;23035;50.032;21.978;2022-08-19T13:16:00;68991.19;;;36.05;35.95
37132;BME280;23035;50.032;21.978;2022-08-19T13:21:10;69101.97;;;37.08;35.28
37132;BME280;23035;50.032;21.978;2022-08-19T13:26:19;69147.81;;;37.51;34.27
37132;BME280;23035;50.032;21.978;2022-08-19T13:31:26;69097.56;;;36.99;34.37
37132;BME280;23035;50.032;21.978;2022-08-19T13:36:48;69137.47;;;37.44;32.91
37132;BME280;23035;50.032;21.978;2022-08-19T13:42:00;69078.97;;;36.82;34.35
37132;BME280;23035;50.032;21.978;2022-08-19T13:47:06;69135.81;;;37.42;33.00
37132;BME280;23035;50.032;21.978;2022-08-19T13:52:10;69177.28;;;37.76;31.70
37132;BME280;23035;50.032;21.978;2022-08-19T13:57:15;69101.91;;;37.03;33.57
37132;BME280;23035;50.032;21.978;2022-08-19T14:02:19;69151.63;;;37.54;33.37
37132;BME280;23035;50.032;21.978;2022-08-19T14:07:23;69302.88;;;38.90;31.65
37132;BME280;23035;50.032;21.978;2022-08-19T14:12:28;69245.56;;;38.42;31.09
37132;BME280;23035;50.032;21.978;2022-08-19T14:17:31;69283.25;;;38.77;32.09
37132;BME280;23035;50.032;21.978;2022-08-19T14:22:38;69240.09;;;38.37;32.88
37132;BME280;23035;50.032;21.978;2022-08-19T14:27:44;69070.25;;;36.76;35.07
37132;BME280;23035;50.032;21.978;2022-08-19T14:32:48;69088.81;;;36.91;34.62
37132;BME280;23035;50.032;21.978;2022-08-19T14:37:53;69107.97;;;37.16;35.18
37132;BME280;23035;50.032;21.978;2022-08-19T14:43:01;69134.13;;;37.36;34.76
37132;BME280;23035;50.032;21.978;2022-08-19T14:48:07;69126.00;;;37.33;34.47
37132;BME280;23035;50.032;21.978;2022-08-19T14:53:20;69112.28;;;37.15;34.37
37132;BME280;23035;50.032;21.978;2022-08-19T14:58:26;69031.00;;;36.39;35.58
37132;BME280;23035;50.032;21.978;2022-08-19T15:03:32;68960.06;;;35.73;36.87
37132;BME280;23035;50.032;21.978;2022-08-19T15:08:38;68949.69;;;35.63;37.72
37132;BME280;23035;50.032;21.978;2022-08-19T15:13:44;69040.31;;;36.53;36.05
37132;BME280;23035;50.032;21.978;2022-08-19T15:18:51;68998.81;;;36.09;36.93
37132;BME280;23035;50.032;21.978;2022-08-19T15:23:58;68971.50;;;35.84;37.05
37132;BME280;23035;50.032;21.978;2022-08-19T15:29:04;68959.50;;;35.73;37.50
37132;BME280;23035;50.032;21.978;2022-08-19T15:34:08;68941.00;;;35.58;37.76
37132;BME280;23035;50.032;21.978;2022-08-19T15:39:12;68920.22;;;35.36;38.08
37132;BME280;23035;50.032;21.978;2022-08-19T15:44:17;68933.84;;;35.46;37.12
37132;BME280;23035;50.032;21.978;2022-08-19T15:49:23;68936.06;;;35.51;37.11
37132;BME280;23035;50.032;21.978;2022-08-19T15:54:27;68841.72;;;34.63;39.03
37132;BME280;23035;50.032;21.978;2022-08-19T15:59:33;68819.94;;;34.42;39.49
37132;BME280;23035;50.032;21.978;2022-08-19T16:04:55;68785.00;;;34.07;40.15
37132;BME280;23035;50.032;21.978;2022-08-19T16:10:16;68720.75;;;33.50;41.22
37132;BME280;23035;50.032;21.978;2022-08-19T16:15:32;68803.59;;;34.30;39.66
37132;BME280;23035;50.032;21.978;2022-08-19T16:20:36;68758.38;;;33.87;40.26
37132;BME280;23035;50.032;21.978;2022-08-19T16:25:40;68683.69;;;33.15;42.12
37132;BME280;23035;50.032;21.978;2022-08-19T16:30:45;68610.72;;;32.47;42.94
37132;BME280;23035;50.032;21.978;2022-08-19T16:35:52;68562.75;;;31.97;44.70
37132;BME280;23035;50.032;21.978;2022-08-19T16:41:08;68512.72;;;31.55;45.18
37132;BME280;23035;50.032;21.978;2022-08-19T16:46:14;68522.00;;;31.66;45.14
37132;BME280;23035;50.032;21.978;2022-08-19T16:51:21;68498.00;;;31.39;46.41
37132;BME280;23035;50.032;21.978;2022-08-19T16:56:25;68388.09;;;30.36;49.39
37132;BME280;23035;50.032;21.978;2022-08-19T17:01:31;68381.06;;;30.32;50.14
37132;BME280;23035;50.032;21.978;2022-08-19T17:06:35;68412.03;;;30.59;49.79
37132;BME280;23035;50.032;21.978;2022-08-19T17:11:40;68346.22;;;29.97;51.86
37132;BME280;23035;50.032;21.978;2022-08-19T17:16:46;68307.13;;;29.63;53.09
37132;BME280;23035;50.032;21.978;2022-08-19T17:21:50;68294.69;;;29.54;53.93
37132;BME280;23035;50.032;21.978;2022-08-19T17:26:54;68294.59;;;29.49;53.91
37132;BME280;23035;50.032;21.978;2022-08-19T17:32:25;68282.63;;;29.37;53.89
37132;BME280;23035;50.032;21.978;2022-08-19T17:38:06;68282.66;;;29.40;53.57
37132;BME280;23035;50.032;21.978;2022-08-19T17:43:25;68262.56;;;29.21;53.18
37132;BME280;23035;50.032;21.978;2022-08-19T17:48:41;68220.66;;;28.79;54.78
37132;BME280;23035;50.032;21.978;2022-08-19T17:53:50;68208.75;;;28.71;55.17
37132;BME280;23035;50.032;21.978;2022-08-19T17:58:58;68196.81;;;28.60;55.74
37132;BME280;23035;50.032;21.978;2022-08-19T18:04:07;68174.50;;;28.36;56.89
37132;BME280;23035;50.032;21.978;2022-08-19T18:09:22;68213.56;;;28.70;56.62
37132;BME280;23035;50.032;21.978;2022-08-19T18:14:29;68158.72;;;28.21;58.73
37132;BME280;23035;50.032;21.978;2022-08-19T18:19:39;68156.06;;;28.21;59.19
37132;BME280;23035;50.032;21.978;2022-08-19T18:24:48;68143.56;;;28.10;59.55
37132;BME280;23035;50.032;21.978;2022-08-19T18:29:52;68146.16;;;28.05;60.43
37132;BME280;23035;50.032;21.978;2022-08-19T18:35:05;68111.53;;;27.80;60.37
37132;BME280;23035;50.032;21.978;2022-08-19T18:40:15;68099.50;;;27.63;62.37
37132;BME280;23035;50.032;21.978;2022-08-19T18:45:37;68115.78;;;27.79;62.28
37132;BME280;23035;50.032;21.978;2022-08-19T18:51:00;68134.84;;;27.99;61.50
37132;BME280;23035;50.032;21.978;2022-08-19T18:56:05;68108.28;;;27.77;63.16
37132;BME280;23035;50.032;21.978;2022-08-19T19:01:11;68108.81;;;27.77;63.52
37132;BME280;23035;50.032;21.978;2022-08-19T19:06:20;68050.09;;;27.17;66.11
37132;BME280;23035;50.032;21.978;2022-08-19T19:11:28;67983.91;;;26.55;69.54
37132;BME280;23035;50.032;21.978;2022-08-19T19:16:32;67987.22;;;26.63;69.33
37132;BME280;23035;50.032;21.978;2022-08-19T19:21:37;68038.22;;;27.08;67.69
37132;BME280;23035;50.032;21.978;2022-08-19T19:26:49;68036.03;;;27.06;67.75
37132;BME280;23035;50.032;21.978;2022-08-19T19:31:53;68029.56;;;27.03;69.05
37132;BME280;23035;50.032;21.978;2022-08-19T19:37:01;68050.72;;;27.23;68.24
37132;BME280;23035;50.032;21.978;2022-08-19T19:42:06;68008.88;;;26.81;70.87
37132;BME280;23035;50.032;21.978;2022-08-19T19:47:21;68030.66;;;27.04;69.89
37132;BME280;23035;50.032;21.978;2022-08-19T19:52:31;68024.09;;;26.95;70.42
37132;BME280;23035;50.032;21.978;2022-08-19T19:57:35;68018.09;;;26.90;70.83
37132;BME280;23035;50.032;21.978;2022-08-19T20:02:41;67983.41;;;26.57;72.65
37132;BME280;23035;50.032;21.978;2022-08-19T20:07:53;67976.91;;;26.53;73.31
37132;BME280;23035;50.032;21.978;2022-08-19T20:13:15;67996.41;;;26.69;72.97
37132;BME280;23035;50.032;21.978;2022-08-19T20:18:19;67994.19;;;26.65;73.55
37132;BME280;23035;50.032;21.978;2022-08-19T20:23:24;67937.81;;;26.14;76.10
37132;BME280;23035;50.032;21.978;2022-08-19T20:28:28;67993.69;;;26.67;74.18
37132;BME280;23035;50.032;21.978;2022-08-19T20:33:33;67980.09;;;26.51;75.00
37132;BME280;23035;50.032;21.978;2022-08-19T20:38:38;67984.44;;;26.55;75.07
37132;BME280;23035;50.032;21.978;2022-08-19T20:43:42;67921.00;;;25.98;78.82
37132;BME280;23035;50.032;21.978;2022-08-19T20:48:47;67923.66;;;25.98;78.95
37132;BME280;23035;50.032;21.978;2022-08-19T20:53:53;67936.78;;;26.16;78.45
37132;BME280;23035;50.032;21.978;2022-08-19T20:58:57;67931.88;;;26.11;78.23
37132;BME280;23035;50.032;21.978;2022-08-19T21:04:02;67917.09;;;25.90;79.85
37132;BME280;23035;50.032;21.978;2022-08-19T21:09:07;67912.88;;;25.91;80.24
37132;BME280;23035;50.032;21.978;2022-08-19T21:14:10;67931.31;;;26.08;78.39
37132;BME280;23035;50.032;21.978;2022-08-19T21:19:14;67901.47;;;25.80;79.78
37132;BME280;23035;50.032;21.978;2022-08-19T21:24:26;67883.56;;;25.63;81.08
37132;BME280;23035;50.032;21.978;2022-08-19T21:29:33;67947.03;;;26.23;76.86
37132;BME280;23035;50.032;21.978;2022-08-19T21:34:38;67880.81;;;25.58;80.24
37132;BME280;23035;50.032;21.978;2022-08-19T21:39:46;67897.13;;;25.76;79.51
37132;BME280;23035;50.032;21.978;2022-08-19T21:44:51;67903.69;;;25.85;79.65
37132;BME280;23035;50.032;21.978;2022-08-19T21:49:55;67864.66;;;25.48;82.06
37132;BME280;23035;50.032;21.978;2022-08-19T21:55:00;67841.25;;;25.21;83.41
37132;BME280;23035;50.032;21.978;2022-08-19T22:00:05;67803.88;;;24.88;85.55
37132;BME280;23035;50.032;21.978;2022-08-19T22:05:11;67839.66;;;25.22;84.33
37132;BME280;23035;50.032;21.978;2022-08-19T22:10:16;67868.44;;;25.52;81.91
37132;BME280;23035;50.032;21.978;2022-08-19T22:15:22;67823.41;;;25.07;84.95
37132;BME280;23035;50.032;21.978;2022-08-19T22:20:29;67825.47;;;25.04;85.17
37132;BME280;23035;50.032;21.978;2022-08-19T22:25:36;67806.59;;;24.91;86.14
37132;BME280;23035;50.032;21.978;2022-08-19T22:30:42;67819.06;;;25.03;86.22
37132;BME280;23035;50.032;21.978;2022-08-19T22:35:47;67762.03;;;24.44;91.25
37132;BME280;23035;50.032;21.978;2022-08-19T22:40:53;67743.19;;;24.31;94.72
37132;BME280;23035;50.032;21.978;2022-08-19T22:46:00;67742.66;;;24.31;96.22
37132;BME280;23035;50.032;21.978;2022-08-19T22:51:04;67661.97;;;23.58;100.00
37132;BME280;23035;50.032;21.978;2022-08-19T22:56:28;67674.88;;;23.65;100.00
37132;BME280;23035;50.032;21.978;2022-08-19T23:01:32;67693.34;;;23.85;100.00
37132;BME280;23035;50.032;21.978;2022-08-19T23:06:37;67656.53;;;23.50;100.00
37132;BME280;23035;50.032;21.978;2022-08-19T23:11:45;67665.16;;;23.58;100.00
37132;BME280;23035;50.032;21.978;2022-08-19T23:16:48;67665.16;;;23.58;100.00
37132;BME280;23035;50.032;21.978;2022-08-19T23:21:55;67676.13;;;23.73;100.00
37132;BME280;23035;50.032;21.978;2022-08-19T23:27:00;67607.78;;;23.04;100.00
37132;BME280;23035;50.032;21.978;2022-08-19T23:32:21;67549.31;;;22.49;100.00
37132;BME280;23035;50.032;21.978;2022-08-19T23:37:26;67575.31;;;22.74;100.00
37132;BME280;23035;50.032;21.978;2022-08-19T23:42:32;67631.06;;;23.26;100.00
37132;BME280;23035;50.032;21.978;2022-08-19T23:47:35;67594.19;;;22.89;100.00
37132;BME280;23035;50.032;21.978;2022-08-19T23:52:45;67619.16;;;23.15;100.00
37132;BME280;23035;50.032;21.978;2022-08-19T23:57:51;67618.63;;;23.14;100.00
